createdAt,value
2023-04-19T00:02:23.883Z,266.52
2023-04-19T00:04:53.125Z,256.17
2023-04-19T00:07:21.544Z,255.95
2023-04-19T00:09:50.674Z,246.40
2023-04-19T00:12:18.286Z,276.33
2023-04-19T00:14:46.004Z,279.63
2023-04-19T00:17:13.753Z,282.92
2023-04-19T00:19:42.377Z,264.25
2023-04-19T00:22:10.653Z,265.27
2023-04-19T00:24:38.763Z,264.33
2023-04-19T00:27:07.740Z,268.38
2023-04-19T00:29:35.512Z,261.50
2023-04-19T00:32:05.797Z,258.85
2023-04-19T00:34:33.692Z,264.15
2023-04-19T00:37:01.346Z,277.65
2023-04-19T00:39:29.021Z,265.20
2023-04-19T00:41:57.371Z,251.55
2023-04-19T00:44:26.399Z,268.13
2023-04-19T00:46:56.819Z,264.73
2023-04-19T00:49:25.105Z,262.77
2023-04-19T00:51:53.169Z,259.98
2023-04-19T00:54:20.993Z,269.70
2023-04-19T00:56:50.991Z,264.35
2023-04-19T00:59:19.793Z,264.40
2023-04-19T01:01:48.918Z,255.05
2023-04-19T01:04:17.386Z,246.75
2023-04-19T01:06:47.559Z,253.63
2023-04-19T01:09:15.238Z,252.02
2023-04-19T01:11:43.666Z,264.90
2023-04-19T01:14:11.612Z,253.52
2023-04-19T01:16:39.979Z,262.70
2023-04-19T01:19:09.445Z,276.95
2023-04-19T01:21:38.271Z,260.95
2023-04-19T01:24:08.155Z,256.33
2023-04-19T01:26:35.887Z,238.98
2023-04-19T01:29:04.164Z,255.85
2023-04-19T01:31:32.030Z,257.10
2023-04-19T01:33:59.757Z,258.17
2023-04-19T01:36:27.835Z,257.27
2023-04-19T01:38:57.865Z,266.55
2023-04-19T01:41:27.600Z,281.90
2023-04-19T01:43:55.244Z,248.85
2023-04-19T01:46:22.964Z,265.77
2023-04-19T01:48:52.154Z,263.05
2023-04-19T01:51:22.845Z,265.08
2023-04-19T01:53:53.465Z,259.67
2023-04-19T01:56:21.787Z,251.27
2023-04-19T01:58:50.835Z,253.48
2023-04-19T02:01:18.657Z,253.35
2023-04-19T02:03:46.624Z,249.07
2023-04-19T02:06:15.014Z,249.80
2023-04-19T02:08:44.044Z,251.07
2023-04-19T02:11:14.316Z,266.80
2023-04-19T02:13:42.478Z,256.88
2023-04-19T02:16:12.189Z,262.48
2023-04-19T02:18:40.569Z,263.38
2023-04-19T02:21:09.272Z,267.85
2023-04-19T02:23:37.002Z,272.38
2023-04-19T02:26:04.770Z,248.90
2023-04-19T02:28:32.791Z,247.05
2023-04-19T02:31:00.530Z,247.75
2023-04-19T02:33:30.124Z,258.30
2023-04-19T02:35:57.743Z,258.83
2023-04-19T02:38:25.488Z,253.00
2023-04-19T02:40:54.836Z,257.30
2023-04-19T02:43:22.541Z,262.20
2023-04-19T02:45:50.634Z,248.85
2023-04-19T02:48:18.509Z,250.65
2023-04-19T02:50:47.521Z,267.70
2023-04-19T02:53:15.468Z,257.75
2023-04-19T02:55:43.587Z,264.35
2023-04-19T02:58:16.625Z,257.33
2023-04-19T03:01:00.614Z,249.75
2023-04-19T03:03:28.665Z,255.02
2023-04-19T03:05:58.576Z,261.15
2023-04-19T03:08:26.606Z,254.55
2023-04-19T03:10:54.232Z,265.73
2023-04-19T03:13:22.034Z,257.67
2023-04-19T03:15:50.159Z,265.73
2023-04-19T03:18:21.647Z,252.98
2023-04-19T03:20:49.307Z,234.77
2023-04-19T03:23:18.420Z,246.07
2023-04-19T03:25:47.145Z,264.23
2023-04-19T03:28:31.803Z,253.98
2023-04-19T03:31:17.991Z,246.45
2023-04-19T03:33:49.385Z,258.88
2023-04-19T03:36:18.127Z,269.15
2023-04-19T03:38:48.820Z,262.05
2023-04-19T03:41:22.098Z,239.05
2023-04-19T03:43:54.984Z,250.68
2023-04-19T03:46:25.719Z,269.52
2023-04-19T03:48:53.978Z,254.10
2023-04-19T03:51:23.146Z,257.70
2023-04-19T03:53:52.202Z,264.38
2023-04-19T03:56:20.487Z,263.27
2023-04-19T03:58:51.493Z,258.63
2023-04-19T04:01:19.896Z,247.07
2023-04-19T04:03:48.225Z,256.87
2023-04-19T04:06:16.167Z,252.33
2023-04-19T04:08:43.984Z,242.83
2023-04-19T04:11:13.088Z,262.83
2023-04-19T04:13:40.885Z,262.20
2023-04-19T04:16:21.728Z,245.27
2023-04-19T04:18:51.692Z,241.07
2023-04-19T04:21:19.526Z,253.73
2023-04-19T04:23:49.919Z,262.00
2023-04-19T04:26:39.637Z,224.37
2023-04-19T04:29:29.022Z,246.70
2023-04-19T04:31:59.233Z,251.97
2023-04-19T04:34:33.029Z,243.37
2023-04-19T04:37:08.733Z,235.47
2023-04-19T04:39:39.325Z,237.67
2023-04-19T04:42:09.918Z,235.20
2023-04-19T04:44:38.854Z,234.83
2023-04-19T04:47:08.123Z,226.80
2023-04-19T04:49:42.128Z,232.73
2023-04-19T04:52:10.203Z,231.43
2023-04-19T04:54:48.043Z,260.27
2023-04-19T04:57:25.065Z,242.43
2023-04-19T04:59:52.832Z,227.00
2023-04-19T05:02:22.549Z,243.57
2023-04-19T05:04:52.327Z,233.20
2023-04-19T05:07:19.960Z,233.67
2023-04-19T05:09:47.677Z,225.83
2023-04-19T05:12:20.283Z,233.97
2023-04-19T05:14:49.219Z,230.17
2023-04-19T05:17:17.176Z,235.27
2023-04-19T05:19:46.272Z,234.55
2023-04-19T05:22:13.973Z,244.10
2023-04-19T05:24:42.853Z,243.37
2023-04-19T05:27:11.766Z,247.40
2023-04-19T05:29:39.498Z,236.97
2023-04-19T05:32:08.914Z,272.45
2023-04-19T05:34:48.454Z,236.48
2023-04-19T05:37:17.271Z,260.53
2023-04-19T05:39:45.180Z,251.13
2023-04-19T05:42:12.879Z,246.68
2023-04-19T05:44:40.622Z,257.60
2023-04-19T05:47:09.816Z,247.77
2023-04-19T05:50:05.905Z,236.07
2023-04-19T05:52:40.068Z,226.30
2023-04-19T05:55:08.422Z,231.60
2023-04-19T05:57:41.540Z,257.52
2023-04-19T06:00:12.598Z,245.90
2023-04-19T06:03:01.631Z,270.08
2023-04-19T06:05:29.873Z,258.63
2023-04-19T06:08:02.476Z,270.48
2023-04-19T06:10:40.497Z,255.57
2023-04-19T06:13:18.625Z,244.73
2023-04-19T06:15:47.119Z,263.98
2023-04-19T06:18:19.583Z,276.05
2023-04-19T06:20:48.214Z,278.95
2023-04-19T06:23:17.153Z,286.85
2023-04-19T06:25:45.087Z,281.70
2023-04-19T06:28:12.841Z,280.10
2023-04-19T06:30:40.537Z,276.17
2023-04-19T06:33:08.181Z,286.13
2023-04-19T06:35:37.574Z,276.40
2023-04-19T06:38:05.189Z,290.45
2023-04-19T06:40:32.862Z,282.80
2023-04-19T06:43:00.560Z,267.88
2023-04-19T06:45:29.259Z,274.27
2023-04-19T06:47:56.975Z,293.40
2023-04-19T06:50:24.800Z,293.55
2023-04-19T06:52:54.356Z,288.35
2023-04-19T06:55:22.249Z,277.05
2023-04-19T06:57:49.956Z,276.63
2023-04-19T07:00:18.550Z,284.42
2023-04-19T07:02:46.304Z,291.95
2023-04-19T07:05:14.284Z,284.48
2023-04-19T07:07:42.149Z,296.65
2023-04-19T07:10:12.811Z,288.55
2023-04-19T07:12:40.470Z,297.95
2023-04-19T07:15:09.268Z,295.20
2023-04-19T07:17:37.651Z,305.70
2023-04-19T07:20:06.732Z,307.50
2023-04-19T07:22:34.398Z,317.17
2023-04-19T07:25:02.080Z,315.92
2023-04-19T07:27:31.083Z,309.40
2023-04-19T07:29:58.813Z,287.92
2023-04-19T07:32:26.781Z,314.25
2023-04-19T07:34:54.437Z,289.67
2023-04-19T07:37:22.397Z,311.50
2023-04-19T07:39:50.123Z,315.63
2023-04-19T07:42:17.798Z,317.58
2023-04-19T07:44:46.853Z,296.05
2023-04-19T07:47:14.509Z,309.35
2023-04-19T07:49:44.273Z,301.23
2023-04-19T07:52:11.907Z,296.40
2023-04-19T07:54:40.082Z,292.63
2023-04-19T07:57:07.754Z,293.35
2023-04-19T07:59:35.415Z,299.98
2023-04-19T08:02:04.558Z,309.58
2023-04-19T08:04:32.695Z,309.30
2023-04-19T08:07:00.834Z,310.92
2023-04-19T08:09:28.564Z,303.58
2023-04-19T08:11:57.040Z,305.92
2023-04-19T08:14:37.799Z,310.27
2023-04-19T08:17:25.581Z,298.02
2023-04-19T08:19:54.739Z,298.25
2023-04-19T08:22:22.616Z,325.08
2023-04-19T08:24:51.417Z,326.50
2023-04-19T08:27:19.492Z,329.77
2023-04-19T08:29:47.537Z,317.67
2023-04-19T08:32:16.782Z,336.83
2023-04-19T08:34:44.560Z,319.63
2023-04-19T08:37:12.268Z,329.33
2023-04-19T08:39:40.229Z,346.58
2023-04-19T08:42:18.411Z,340.52
2023-04-19T08:45:23.421Z,332.83
2023-04-19T08:47:58.642Z,305.23
2023-04-19T08:53:12.269Z,307.23
2023-04-19T08:55:51.018Z,301.80
2023-04-19T08:58:51.936Z,322.42
2023-04-19T09:01:34.048Z,330.10
2023-04-19T09:04:16.918Z,323.13
2023-04-19T09:06:55.076Z,312.60
2023-04-19T09:11:55.226Z,333.55
2023-04-19T09:14:24.114Z,333.92
2023-04-19T09:16:52.841Z,332.85
2023-04-19T09:19:25.282Z,326.10
2023-04-19T09:21:54.729Z,340.60
2023-04-19T09:27:12.043Z,321.88
2023-04-19T09:29:40.017Z,307.48
2023-04-19T09:32:07.938Z,331.98
2023-04-19T09:34:37.020Z,320.48
2023-04-19T09:37:21.530Z,323.42
2023-04-19T09:40:00.592Z,321.35
2023-04-19T09:48:02.102Z,311.25
2023-04-19T09:50:31.799Z,320.40
2023-04-19T09:53:00.972Z,315.75
2023-04-19T09:55:30.345Z,318.48
2023-04-19T09:58:03.514Z,317.77
2023-04-19T10:00:36.166Z,318.02
2023-04-19T10:03:13.644Z,306.63
2023-04-19T10:05:44.259Z,305.40
2023-04-19T10:08:13.558Z,317.17
2023-04-19T10:10:42.891Z,315.10
2023-04-19T10:15:51.266Z,313.67
2023-04-19T10:18:23.915Z,310.95
2023-04-19T10:20:59.824Z,321.88
2023-04-19T10:23:28.861Z,309.48
2023-04-19T10:25:57.871Z,315.05
2023-04-19T10:28:29.629Z,327.92
2023-04-19T10:31:02.325Z,318.65
2023-04-19T10:33:36.689Z,294.52
2023-04-19T10:36:10.590Z,308.00
2023-04-19T10:38:40.450Z,279.75
2023-04-19T10:41:17.034Z,300.05
2023-04-19T10:43:48.065Z,285.23
2023-04-19T10:46:18.410Z,261.60
2023-04-19T10:48:54.474Z,249.73
2023-04-19T10:51:27.802Z,243.68
2023-04-19T10:53:57.931Z,241.48
2023-04-19T10:57:02.161Z,240.18
2023-04-19T10:59:31.600Z,242.20
2023-04-19T11:02:01.086Z,232.63
2023-04-19T11:05:04.207Z,252.40
2023-04-19T11:07:41.507Z,212.40
2023-04-19T11:10:11.453Z,216.35
2023-04-19T11:12:43.372Z,226.02
2023-04-19T11:15:11.876Z,228.38
2023-04-19T11:17:39.778Z,212.63
2023-04-19T11:20:10.757Z,225.90
2023-04-19T11:22:41.237Z,228.27
2023-04-19T11:25:13.078Z,213.48
2023-04-19T11:27:42.754Z,222.85
2023-04-19T11:30:12.605Z,218.10
2023-04-19T11:32:46.581Z,217.57
2023-04-19T11:35:14.671Z,209.52
2023-04-19T11:37:44.026Z,203.10
2023-04-19T11:40:16.075Z,201.32
2023-04-19T11:42:44.080Z,193.52
2023-04-19T11:45:22.338Z,208.07
2023-04-19T11:47:57.422Z,201.20
2023-04-19T11:50:35.482Z,206.10
2023-04-19T11:53:16.057Z,215.05
2023-04-19T11:55:45.332Z,200.18
2023-04-19T11:58:29.072Z,199.70
2023-04-19T12:00:58.231Z,192.15
2023-04-19T12:03:27.280Z,178.18
2023-04-19T12:06:00.132Z,194.45
2023-04-19T12:08:34.297Z,184.75
2023-04-19T12:11:03.531Z,179.77
2023-04-19T12:13:32.155Z,189.38
2023-04-19T12:16:00.702Z,184.18
2023-04-19T12:18:28.442Z,183.95
2023-04-19T12:20:56.226Z,187.90
2023-04-19T12:23:23.929Z,174.90
2023-04-19T12:25:53.776Z,173.85
2023-04-19T12:28:21.514Z,176.65
2023-04-19T12:30:49.150Z,183.82
2023-04-19T12:33:16.890Z,169.88
2023-04-19T12:35:44.965Z,185.27
2023-04-19T12:38:12.678Z,181.65
2023-04-19T12:40:40.342Z,165.88
2023-04-19T12:43:09.406Z,164.60
2023-04-19T12:45:37.140Z,180.55
2023-04-19T12:48:05.040Z,165.43
2023-04-19T12:50:32.752Z,167.15
2023-04-19T12:53:00.423Z,172.75
2023-04-19T12:55:28.236Z,181.45
2023-04-19T12:57:55.863Z,175.27
2023-04-19T13:00:25.088Z,183.75
2023-04-19T13:02:52.828Z,175.85
2023-04-19T13:05:20.815Z,171.85
2023-04-19T13:07:48.576Z,165.60
2023-04-19T13:10:16.693Z,165.07
2023-04-19T13:12:44.479Z,161.40
2023-04-19T13:15:12.607Z,169.75
2023-04-19T13:17:41.596Z,158.50
2023-04-19T13:20:10.550Z,156.10
2023-04-19T13:22:38.568Z,167.55
2023-04-19T13:25:06.967Z,178.30
2023-04-19T13:27:34.626Z,174.38
2023-04-19T13:30:02.306Z,156.75
2023-04-19T13:32:30.332Z,163.65
2023-04-19T13:34:59.390Z,155.82
2023-04-19T13:37:27.040Z,154.93
2023-04-19T13:40:03.959Z,158.50
2023-04-19T13:42:39.264Z,134.32
2023-04-19T13:45:08.023Z,137.57
2023-04-19T13:47:35.733Z,143.18
2023-04-19T13:50:05.684Z,140.02
2023-04-19T13:52:33.428Z,134.57
2023-04-19T13:55:01.077Z,132.95
2023-04-19T13:57:29.001Z,128.65
2023-04-19T13:59:56.664Z,132.95
2023-04-19T14:02:24.565Z,133.20
2023-04-19T14:04:52.379Z,131.68
2023-04-19T14:07:21.388Z,129.15
2023-04-19T14:09:49.039Z,127.45
2023-04-19T14:12:16.721Z,121.25
2023-04-19T14:14:44.410Z,119.13
2023-04-19T14:17:12.084Z,112.80
2023-04-19T14:19:39.748Z,120.15
2023-04-19T14:22:07.434Z,117.28
2023-04-19T14:24:36.529Z,107.63
2023-04-19T14:27:10.996Z,101.30
2023-04-19T14:29:39.136Z,96.25
2023-04-19T14:32:23.458Z,89.78
2023-04-19T14:34:52.654Z,89.05
2023-04-19T14:37:20.402Z,83.43
2023-04-19T14:39:49.435Z,81.60
2023-04-19T14:42:17.175Z,79.80
2023-04-19T14:44:45.629Z,82.22
2023-04-19T14:47:13.703Z,80.57
2023-04-19T14:49:42.213Z,79.97
2023-04-19T14:52:09.950Z,73.20
2023-04-19T14:54:37.655Z,74.28
2023-04-19T14:57:06.725Z,70.65
2023-04-19T14:59:34.437Z,78.93
2023-04-19T15:02:02.318Z,70.10
2023-04-19T15:04:30.147Z,78.55
2023-04-19T15:06:57.857Z,69.65
2023-04-19T15:09:25.511Z,70.10
2023-04-19T15:11:53.151Z,69.57
2023-04-19T15:14:28.669Z,69.65
2023-04-19T15:16:56.315Z,68.47
2023-04-19T15:19:24.077Z,68.72
2023-04-19T15:21:51.705Z,68.88
2023-04-19T15:24:19.447Z,74.38
2023-04-19T15:26:47.554Z,69.68
2023-04-19T15:29:15.805Z,67.57
2023-04-19T15:31:45.201Z,64.63
2023-04-19T15:34:12.887Z,70.75
2023-04-19T15:36:41.270Z,66.38
2023-04-19T15:39:09.172Z,72.88
2023-04-19T15:41:36.882Z,69.82
2023-04-19T15:44:04.534Z,70.28
2023-04-19T15:46:32.318Z,64.32
2023-04-19T15:49:01.788Z,65.68
2023-04-19T15:51:29.384Z,65.95
2023-04-19T15:53:57.446Z,71.25
2023-04-19T15:56:25.177Z,71.90
2023-04-19T15:58:53.176Z,65.40
2023-04-19T16:01:22.831Z,71.95
2023-04-19T16:03:50.733Z,69.07
2023-04-19T16:06:19.787Z,72.25
2023-04-19T16:08:47.473Z,64.78
2023-04-19T16:11:15.176Z,61.17
2023-04-19T16:13:42.822Z,58.58
2023-04-19T16:16:10.547Z,61.47
2023-04-19T16:18:38.336Z,62.40
2023-04-19T16:21:06.458Z,66.28
2023-04-19T16:23:35.475Z,59.42
2023-04-19T16:26:03.114Z,67.35
2023-04-19T16:28:30.859Z,62.97
2023-04-19T16:30:58.597Z,59.28
2023-04-19T16:33:26.267Z,61.03
2023-04-19T16:35:54.071Z,58.33
2023-04-19T16:38:21.719Z,58.90
2023-04-19T16:40:51.426Z,60.38
2023-04-19T16:43:20.741Z,60.30
2023-04-19T16:45:48.636Z,54.95
2023-04-19T16:48:16.431Z,56.75
2023-04-19T16:50:44.338Z,57.92
2023-04-19T16:53:12.547Z,60.03
2023-04-19T16:55:40.234Z,59.67
2023-04-19T16:58:09.254Z,60.72
2023-04-19T17:00:36.894Z,55.47
2023-04-19T17:03:04.967Z,55.28
2023-04-19T17:05:32.715Z,59.40
2023-04-19T17:08:00.376Z,57.55
2023-04-19T17:10:28.587Z,51.95
2023-04-19T17:12:56.406Z,53.47
2023-04-19T17:15:26.001Z,51.15
2023-04-19T17:17:53.789Z,57.03
2023-04-19T17:20:21.597Z,54.63
2023-04-19T17:22:49.259Z,53.35
2023-04-19T17:25:16.959Z,50.13
2023-04-19T17:27:46.581Z,51.22
2023-04-19T17:30:14.793Z,53.75
2023-04-19T17:32:43.839Z,50.53
2023-04-19T17:35:11.511Z,47.83
2023-04-19T17:37:39.174Z,51.67
2023-04-19T17:40:08.252Z,54.28
2023-04-19T17:42:35.940Z,54.00
2023-04-19T17:45:04.186Z,53.33
2023-04-19T17:47:32.325Z,45.47
2023-04-19T17:50:07.943Z,48.15
2023-04-19T17:52:35.663Z,47.00
2023-04-19T17:55:04.654Z,42.20
2023-04-19T17:57:33.975Z,43.75
2023-04-19T18:00:06.556Z,47.42
2023-04-19T18:02:37.037Z,46.55
2023-04-19T18:05:07.400Z,44.47
2023-04-19T18:07:36.684Z,46.65
2023-04-19T18:10:04.808Z,50.25
2023-04-19T18:12:32.791Z,55.28
2023-04-19T18:15:00.524Z,48.55
2023-04-19T18:17:28.183Z,59.03
2023-04-19T18:19:55.861Z,48.85
2023-04-19T18:22:24.831Z,50.00
2023-04-19T18:24:53.456Z,50.13
2023-04-19T18:27:21.204Z,54.38
2023-04-19T18:29:51.813Z,46.90
2023-04-19T18:32:21.621Z,55.03
2023-04-19T18:34:49.367Z,50.97
2023-04-19T18:37:17.805Z,55.70
2023-04-19T18:39:47.114Z,57.25
2023-04-19T18:42:14.782Z,63.83
2023-04-19T18:47:13.068Z,67.70
2023-04-19T18:49:40.787Z,58.23
2023-04-19T18:52:08.413Z,61.63
2023-04-19T18:54:36.197Z,67.70
2023-04-19T18:57:22.752Z,73.33
2023-04-19T18:59:50.954Z,62.73
2023-04-19T19:02:18.839Z,68.33
2023-04-19T19:04:55.874Z,66.73
2023-04-19T19:07:35.582Z,75.57
2023-04-19T19:10:17.287Z,69.33
2023-04-19T19:12:50.264Z,73.53
2023-04-19T19:15:18.199Z,72.90
2023-04-19T19:17:49.373Z,83.70
2023-04-19T19:20:18.523Z,79.00
2023-04-19T19:22:46.440Z,84.07
2023-04-19T19:25:14.130Z,89.77
2023-04-19T19:27:49.865Z,90.93
2023-04-19T19:30:33.607Z,84.70
2023-04-19T19:33:02.740Z,81.53
2023-04-19T19:35:30.576Z,90.47
2023-04-19T19:37:58.306Z,93.50
2023-04-19T19:40:26.961Z,96.40
2023-04-19T19:42:58.603Z,90.53
2023-04-19T19:45:28.218Z,103.23
2023-04-19T19:47:59.085Z,102.93
2023-04-19T19:53:00.236Z,103.37
2023-04-19T19:55:28.375Z,111.47
2023-04-19T20:02:59.118Z,136.47
2023-04-19T20:05:27.778Z,130.97
2023-04-19T20:08:06.111Z,142.00
2023-04-19T20:10:34.282Z,151.13
2023-04-19T20:13:02.310Z,145.10
2023-04-19T20:15:30.941Z,142.57
2023-04-19T20:18:00.032Z,143.50
2023-04-19T20:20:27.869Z,147.70
2023-04-19T20:22:55.994Z,156.47
2023-04-19T20:25:23.763Z,150.23
2023-04-19T20:27:51.461Z,150.83
2023-04-19T20:30:19.075Z,153.50
2023-04-19T20:32:48.313Z,165.97
2023-04-19T20:35:17.999Z,168.80
2023-04-19T20:37:47.380Z,159.27
2023-04-19T20:40:16.373Z,155.70
2023-04-19T20:42:44.770Z,176.00
2023-04-19T20:45:14.104Z,162.77
2023-04-19T20:47:42.746Z,167.23
2023-04-19T20:50:11.128Z,160.97
2023-04-19T20:52:40.449Z,169.00
2023-04-19T20:55:09.052Z,180.30
2023-04-19T20:57:36.708Z,172.00
2023-04-19T21:00:07.948Z,173.93
2023-04-19T21:02:35.757Z,176.97
2023-04-19T21:05:03.475Z,176.00
2023-04-19T21:07:31.173Z,173.33
2023-04-19T21:10:00.406Z,160.27
2023-04-19T21:12:28.594Z,171.80
2023-04-19T21:14:56.428Z,165.37
2023-04-19T21:17:24.114Z,173.80
2023-04-19T21:19:51.834Z,171.40
2023-04-19T21:22:19.557Z,171.33
2023-04-19T21:24:47.741Z,165.33
2023-04-19T21:27:16.881Z,175.43
2023-04-19T21:29:44.946Z,171.77
2023-04-19T21:32:12.838Z,169.67
2023-04-19T21:34:40.664Z,166.27
2023-04-19T21:37:08.623Z,178.03
2023-04-19T21:39:36.542Z,171.93
2023-04-19T21:42:04.454Z,171.07
2023-04-19T21:44:34.414Z,176.37
2023-04-19T21:47:02.357Z,176.07
2023-04-19T21:49:31.015Z,176.23
2023-04-19T21:51:59.005Z,180.33
2023-04-19T21:54:33.924Z,173.57
2023-04-19T21:57:03.253Z,162.07
2023-04-19T21:59:31.542Z,162.00
2023-04-19T22:02:01.759Z,176.60
2023-04-19T22:04:31.098Z,171.60
2023-04-19T22:07:02.378Z,172.30
2023-04-19T22:09:31.094Z,162.43
2023-04-19T22:12:00.214Z,150.90
2023-04-19T22:14:30.796Z,160.97
2023-04-19T22:17:02.670Z,153.17
2023-04-19T22:19:32.652Z,166.27
2023-04-19T22:22:00.789Z,153.70
2023-04-19T22:24:29.044Z,156.90
2023-04-19T22:26:57.496Z,154.23
2023-04-19T22:29:25.705Z,155.17
2023-04-19T22:31:54.180Z,160.77
2023-04-19T22:34:22.892Z,146.53
2023-04-19T22:36:52.486Z,144.63
2023-04-19T22:39:20.802Z,152.77
2023-04-19T22:41:49.057Z,140.40
2023-04-19T22:44:17.452Z,145.63
2023-04-19T22:46:46.023Z,145.37
2023-04-19T22:49:14.330Z,139.77
2023-04-19T22:51:42.438Z,143.13
2023-04-19T22:54:12.001Z,144.57
2023-04-19T22:56:40.428Z,136.60
2023-04-19T22:59:08.973Z,143.97
2023-04-19T23:01:37.123Z,147.20
2023-04-19T23:04:05.342Z,141.93
2023-04-19T23:06:33.862Z,136.80
2023-04-19T23:09:02.075Z,136.70
2023-04-19T23:11:31.698Z,146.23
2023-04-19T23:13:59.780Z,145.67
2023-04-19T23:16:28.930Z,139.87
2023-04-19T23:18:56.950Z,135.80
2023-04-19T23:21:24.686Z,138.83
2023-04-19T23:23:52.866Z,134.97
2023-04-19T23:26:21.524Z,135.77
2023-04-19T23:28:50.512Z,132.33
2023-04-19T23:31:18.324Z,135.40
2023-04-19T23:33:46.343Z,134.07
2023-04-19T23:36:13.993Z,138.07
2023-04-19T23:38:41.691Z,137.63
2023-04-19T23:41:10.955Z,141.43
2023-04-19T23:43:38.727Z,134.47
2023-04-19T23:46:08.530Z,139.43
2023-04-19T23:48:36.335Z,126.93
2023-04-19T23:51:04.071Z,130.20
2023-04-19T23:53:31.855Z,128.50
2023-04-19T23:55:59.818Z,141.77
2023-04-19T23:58:27.518Z,125.70
